sensor_id;sensor_type;location;lat;lon;timestamp;P1;durP1;ratioP1;P2;durP2;ratioP2
28629;SDS011;15817;42.130;24.762;2022-08-25T00:01:12;15.05;;;6.00;;
28629;SDS011;15817;42.130;24.762;2022-08-25T00:03:39;21.02;;;5.82;;
28629;SDS011;15817;42.130;24.762;2022-08-25T00:06:06;15.68;;;5.85;;
28629;SDS011;15817;42.130;24.762;2022-08-25T00:08:33;17.42;;;5.55;;
28629;SDS011;15817;42.130;24.762;2022-08-25T00:11:05;18.85;;;5.70;;
28629;SDS011;15817;42.130;24.762;2022-08-25T00:13:36;21.33;;;5.60;;
28629;SDS011;15817;42.130;24.762;2022-08-25T00:16:03;18.30;;;6.07;;
28629;SDS011;15817;42.130;24.762;2022-08-25T00:18:29;19.45;;;6.07;;
28629;SDS011;15817;42.130;24.762;2022-08-25T00:20:55;20.23;;;5.60;;
28629;SDS011;15817;42.130;24.762;2022-08-25T00:23:21;15.50;;;5.07;;
28629;SDS011;15817;42.130;24.762;2022-08-25T00:25:47;14.32;;;4.95;;
28629;SDS011;15817;42.130;24.762;2022-08-25T00:28:13;20.05;;;5.60;;
28629;SDS011;15817;42.130;24.762;2022-08-25T00:30:41;19.10;;;5.68;;
28629;SDS011;15817;42.130;24.762;2022-08-25T00:33:09;16.80;;;4.80;;
28629;SDS011;15817;42.130;24.762;2022-08-25T00:35:36;17.00;;;5.60;;
28629;SDS011;15817;42.130;24.762;2022-08-25T00:38:01;19.40;;;5.88;;
28629;SDS011;15817;42.130;24.762;2022-08-25T00:40:28;16.85;;;5.85;;
28629;SDS011;15817;42.130;24.762;2022-08-25T00:42:54;14.63;;;6.10;;
28629;SDS011;15817;42.130;24.762;2022-08-25T00:45:21;19.65;;;5.53;;
28629;SDS011;15817;42.130;24.762;2022-08-25T00:47:47;23.27;;;5.20;;
28629;SDS011;15817;42.130;24.762;2022-08-25T00:50:13;17.92;;;5.10;;
28629;SDS011;15817;42.130;24.762;2022-08-25T00:52:42;19.42;;;5.25;;
28629;SDS011;15817;42.130;24.762;2022-08-25T00:55:24;22.08;;;5.85;;
28629;SDS011;15817;42.130;24.762;2022-08-25T00:57:54;15.02;;;4.93;;
28629;SDS011;15817;42.130;24.762;2022-08-25T01:00:34;14.20;;;4.60;;
28629;SDS011;15817;42.130;24.762;2022-08-25T01:03:04;17.17;;;4.63;;
28629;SDS011;15817;42.130;24.762;2022-08-25T01:05:31;17.10;;;5.75;;
28629;SDS011;15817;42.130;24.762;2022-08-25T01:07:57;14.32;;;4.85;;
28629;SDS011;15817;42.130;24.762;2022-08-25T01:10:27;13.15;;;5.07;;
28629;SDS011;15817;42.130;24.762;2022-08-25T01:12:57;16.33;;;4.78;;
28629;SDS011;15817;42.130;24.762;2022-08-25T01:15:27;23.13;;;5.78;;
28629;SDS011;15817;42.130;24.762;2022-08-25T01:17:54;15.88;;;5.60;;
28629;SDS011;15817;42.130;24.762;2022-08-25T01:20:23;17.92;;;4.95;;
28629;SDS011;15817;42.130;24.762;2022-08-25T01:22:52;18.02;;;5.47;;
28629;SDS011;15817;42.130;24.762;2022-08-25T01:27:49;17.00;;;5.18;;
28629;SDS011;15817;42.130;24.762;2022-08-25T01:30:17;25.55;;;5.05;;
28629;SDS011;15817;42.130;24.762;2022-08-25T01:32:43;28.17;;;5.85;;
28629;SDS011;15817;42.130;24.762;2022-08-25T01:35:10;20.00;;;5.35;;
28629;SDS011;15817;42.130;24.762;2022-08-25T01:37:37;17.45;;;5.40;;
28629;SDS011;15817;42.130;24.762;2022-08-25T01:40:04;14.00;;;5.32;;
28629;SDS011;15817;42.130;24.762;2022-08-25T01:45:18;16.77;;;4.93;;
28629;SDS011;15817;42.130;24.762;2022-08-25T01:47:45;20.15;;;5.63;;
28629;SDS011;15817;42.130;24.762;2022-08-25T01:50:13;22.55;;;5.22;;
28629;SDS011;15817;42.130;24.762;2022-08-25T01:52:49;21.52;;;5.25;;
28629;SDS011;15817;42.130;24.762;2022-08-25T01:55:19;19.15;;;5.85;;
28629;SDS011;15817;42.130;24.762;2022-08-25T01:57:45;16.17;;;5.60;;
28629;SDS011;15817;42.130;24.762;2022-08-25T02:00:11;20.75;;;5.32;;
28629;SDS011;15817;42.130;24.762;2022-08-25T02:02:39;19.35;;;5.13;;
28629;SDS011;15817;42.130;24.762;2022-08-25T02:05:07;18.55;;;4.82;;
28629;SDS011;15817;42.130;24.762;2022-08-25T02:07:34;11.85;;;4.40;;
28629;SDS011;15817;42.130;24.762;2022-08-25T02:10:03;16.45;;;4.72;;
28629;SDS011;15817;42.130;24.762;2022-08-25T02:12:31;18.80;;;5.25;;
28629;SDS011;15817;42.130;24.762;2022-08-25T02:14:58;19.45;;;4.15;;
28629;SDS011;15817;42.130;24.762;2022-08-25T02:17:26;22.60;;;5.32;;
28629;SDS011;15817;42.130;24.762;2022-08-25T02:19:53;13.25;;;3.92;;
28629;SDS011;15817;42.130;24.762;2022-08-25T02:22:21;18.88;;;4.85;;
28629;SDS011;15817;42.130;24.762;2022-08-25T02:24:48;16.60;;;4.35;;
28629;SDS011;15817;42.130;24.762;2022-08-25T02:27:14;10.93;;;3.75;;
28629;SDS011;15817;42.130;24.762;2022-08-25T02:29:40;24.83;;;4.68;;
28629;SDS011;15817;42.130;24.762;2022-08-25T02:32:06;14.38;;;3.78;;
28629;SDS011;15817;42.130;24.762;2022-08-25T02:34:32;14.52;;;4.30;;
28629;SDS011;15817;42.130;24.762;2022-08-25T02:36:59;16.25;;;4.05;;
28629;SDS011;15817;42.130;24.762;2022-08-25T02:39:26;14.25;;;4.28;;
28629;SDS011;15817;42.130;24.762;2022-08-25T02:41:52;16.77;;;5.05;;
28629;SDS011;15817;42.130;24.762;2022-08-25T02:44:18;16.67;;;3.78;;
28629;SDS011;15817;42.130;24.762;2022-08-25T02:46:49;13.68;;;4.15;;
28629;SDS011;15817;42.130;24.762;2022-08-25T02:49:15;13.18;;;4.03;;
28629;SDS011;15817;42.130;24.762;2022-08-25T02:51:41;9.73;;;3.55;;
28629;SDS011;15817;42.130;24.762;2022-08-25T02:54:07;11.93;;;3.92;;
28629;SDS011;15817;42.130;24.762;2022-08-25T02:56:33;10.30;;;3.40;;
28629;SDS011;15817;42.130;24.762;2022-08-25T02:58:59;16.95;;;3.92;;
28629;SDS011;15817;42.130;24.762;2022-08-25T03:01:26;20.23;;;3.47;;
28629;SDS011;15817;42.130;24.762;2022-08-25T03:03:53;25.42;;;4.18;;
28629;SDS011;15817;42.130;24.762;2022-08-25T03:06:19;14.48;;;3.58;;
28629;SDS011;15817;42.130;24.762;2022-08-25T03:08:48;18.92;;;3.95;;
28629;SDS011;15817;42.130;24.762;2022-08-25T03:11:17;20.02;;;3.85;;
28629;SDS011;15817;42.130;24.762;2022-08-25T03:13:44;9.73;;;3.28;;
28629;SDS011;15817;42.130;24.762;2022-08-25T03:16:13;13.00;;;3.40;;
28629;SDS011;15817;42.130;24.762;2022-08-25T03:18:42;14.43;;;3.50;;
28629;SDS011;15817;42.130;24.762;2022-08-25T03:21:13;18.45;;;3.55;;
28629;SDS011;15817;42.130;24.762;2022-08-25T03:23:40;21.17;;;3.63;;
28629;SDS011;15817;42.130;24.762;2022-08-25T03:26:10;18.50;;;4.63;;
28629;SDS011;15817;42.130;24.762;2022-08-25T03:28:54;13.65;;;3.40;;
28629;SDS011;15817;42.130;24.762;2022-08-25T03:31:21;16.42;;;3.10;;
28629;SDS011;15817;42.130;24.762;2022-08-25T03:33:50;13.75;;;3.20;;
28629;SDS011;15817;42.130;24.762;2022-08-25T03:36:16;5.35;;;2.55;;
28629;SDS011;15817;42.130;24.762;2022-08-25T03:38:42;13.38;;;3.55;;
28629;SDS011;15817;42.130;24.762;2022-08-25T03:41:12;11.13;;;3.10;;
28629;SDS011;15817;42.130;24.762;2022-08-25T03:43:52;9.48;;;2.88;;
28629;SDS011;15817;42.130;24.762;2022-08-25T03:46:19;9.80;;;3.63;;
28629;SDS011;15817;42.130;24.762;2022-08-25T03:48:50;5.72;;;3.33;;
28629;SDS011;15817;42.130;24.762;2022-08-25T03:51:31;10.73;;;3.05;;
28629;SDS011;15817;42.130;24.762;2022-08-25T03:54:19;12.57;;;3.15;;
28629;SDS011;15817;42.130;24.762;2022-08-25T03:56:47;9.35;;;3.15;;
28629;SDS011;15817;42.130;24.762;2022-08-25T03:59:19;11.80;;;3.13;;
28629;SDS011;15817;42.130;24.762;2022-08-25T04:01:51;7.65;;;3.05;;
28629;SDS011;15817;42.130;24.762;2022-08-25T04:04:17;5.97;;;2.80;;
28629;SDS011;15817;42.130;24.762;2022-08-25T04:06:58;10.60;;;2.72;;
28629;SDS011;15817;42.130;24.762;2022-08-25T04:09:26;14.40;;;3.10;;
28629;SDS011;15817;42.130;24.762;2022-08-25T04:11:53;6.40;;;2.50;;
28629;SDS011;15817;42.130;24.762;2022-08-25T04:14:24;9.07;;;2.50;;
28629;SDS011;15817;42.130;24.762;2022-08-25T04:17:06;9.43;;;2.88;;
28629;SDS011;15817;42.130;24.762;2022-08-25T04:19:36;10.70;;;3.20;;
28629;SDS011;15817;42.130;24.762;2022-08-25T04:22:35;8.77;;;2.85;;
28629;SDS011;15817;42.130;24.762;2022-08-25T04:25:09;11.15;;;3.10;;
28629;SDS011;15817;42.130;24.762;2022-08-25T04:27:35;11.75;;;3.05;;
28629;SDS011;15817;42.130;24.762;2022-08-25T04:30:09;9.25;;;3.33;;
28629;SDS011;15817;42.130;24.762;2022-08-25T04:32:36;9.38;;;2.80;;
28629;SDS011;15817;42.130;24.762;2022-08-25T04:35:18;9.13;;;3.03;;
28629;SDS011;15817;42.130;24.762;2022-08-25T04:38:04;8.70;;;2.35;;
28629;SDS011;15817;42.130;24.762;2022-08-25T04:40:33;7.57;;;2.70;;
28629;SDS011;15817;42.130;24.762;2022-08-25T04:45:57;13.02;;;3.30;;
28629;SDS011;15817;42.130;24.762;2022-08-25T04:48:29;20.58;;;3.45;;
28629;SDS011;15817;42.130;24.762;2022-08-25T04:51:11;13.13;;;3.55;;
28629;SDS011;15817;42.130;24.762;2022-08-25T05:00:10;13.05;;;3.47;;
28629;SDS011;15817;42.130;24.762;2022-08-25T05:13:29;12.50;;;2.92;;
28629;SDS011;15817;42.130;24.762;2022-08-25T05:17:08;10.18;;;3.20;;
28629;SDS011;15817;42.130;24.762;2022-08-25T05:22:59;9.77;;;3.53;;
28629;SDS011;15817;42.130;24.762;2022-08-25T05:25:52;13.70;;;3.70;;
28629;SDS011;15817;42.130;24.762;2022-08-25T05:28:39;12.20;;;4.03;;
28629;SDS011;15817;42.130;24.762;2022-08-25T05:31:32;11.98;;;3.83;;
28629;SDS011;15817;42.130;24.762;2022-08-25T05:34:04;15.25;;;4.43;;
28629;SDS011;15817;42.130;24.762;2022-08-25T05:36:39;11.27;;;4.00;;
28629;SDS011;15817;42.130;24.762;2022-08-25T05:39:23;11.35;;;4.32;;
28629;SDS011;15817;42.130;24.762;2022-08-25T05:43:02;15.85;;;4.85;;
28629;SDS011;15817;42.130;24.762;2022-08-25T05:45:34;12.95;;;4.60;;
28629;SDS011;15817;42.130;24.762;2022-08-25T05:48:08;15.20;;;5.45;;
28629;SDS011;15817;42.130;24.762;2022-08-25T05:51:42;11.63;;;4.85;;
28629;SDS011;15817;42.130;24.762;2022-08-25T05:54:20;13.50;;;5.00;;
28629;SDS011;15817;42.130;24.762;2022-08-25T05:57:33;14.85;;;4.93;;
28629;SDS011;15817;42.130;24.762;2022-08-25T06:00:42;13.85;;;5.85;;
28629;SDS011;15817;42.130;24.762;2022-08-25T06:03:40;20.70;;;6.07;;
28629;SDS011;15817;42.130;24.762;2022-08-25T06:06:06;13.98;;;6.13;;
28629;SDS011;15817;42.130;24.762;2022-08-25T06:08:43;16.38;;;6.60;;
28629;SDS011;15817;42.130;24.762;2022-08-25T06:11:32;17.80;;;7.32;;
28629;SDS011;15817;42.130;24.762;2022-08-25T06:14:08;17.48;;;6.65;;
28629;SDS011;15817;42.130;24.762;2022-08-25T06:17:36;13.00;;;7.15;;
28629;SDS011;15817;42.130;24.762;2022-08-25T06:20:06;17.70;;;7.00;;
28629;SDS011;15817;42.130;24.762;2022-08-25T06:23:37;15.85;;;7.90;;
28629;SDS011;15817;42.130;24.762;2022-08-25T06:26:13;22.55;;;8.05;;
28629;SDS011;15817;42.130;24.762;2022-08-25T06:36:42;19.77;;;8.45;;
28629;SDS011;15817;42.130;24.762;2022-08-25T06:51:25;27.77;;;8.73;;
28629;SDS011;15817;42.130;24.762;2022-08-25T06:53:56;24.15;;;8.25;;
28629;SDS011;15817;42.130;24.762;2022-08-25T06:56:28;12.25;;;7.88;;
28629;SDS011;15817;42.130;24.762;2022-08-25T06:59:03;22.20;;;8.98;;
28629;SDS011;15817;42.130;24.762;2022-08-25T07:01:45;20.83;;;8.40;;
28629;SDS011;15817;42.130;24.762;2022-08-25T07:04:13;23.77;;;9.50;;
28629;SDS011;15817;42.130;24.762;2022-08-25T07:06:40;14.40;;;7.75;;
28629;SDS011;15817;42.130;24.762;2022-08-25T07:10:03;17.80;;;8.95;;
28629;SDS011;15817;42.130;24.762;2022-08-25T07:12:41;19.73;;;9.02;;
28629;SDS011;15817;42.130;24.762;2022-08-25T07:15:45;22.50;;;8.57;;
28629;SDS011;15817;42.130;24.762;2022-08-25T07:18:18;20.85;;;8.98;;
28629;SDS011;15817;42.130;24.762;2022-08-25T07:21:19;24.42;;;9.30;;
28629;SDS011;15817;42.130;24.762;2022-08-25T07:24:00;33.70;;;9.70;;
28629;SDS011;15817;42.130;24.762;2022-08-25T07:26:39;25.88;;;9.38;;
28629;SDS011;15817;42.130;24.762;2022-08-25T07:29:24;28.23;;;10.00;;
28629;SDS011;15817;42.130;24.762;2022-08-25T07:32:04;22.38;;;9.30;;
28629;SDS011;15817;42.130;24.762;2022-08-25T07:34:33;26.05;;;10.45;;
28629;SDS011;15817;42.130;24.762;2022-08-25T07:37:37;42.47;;;10.07;;
28629;SDS011;15817;42.130;24.762;2022-08-25T07:40:25;30.45;;;10.73;;
28629;SDS011;15817;42.130;24.762;2022-08-25T07:43:10;22.77;;;9.45;;
28629;SDS011;15817;42.130;24.762;2022-08-25T07:45:54;36.60;;;10.63;;
28629;SDS011;15817;42.130;24.762;2022-08-25T07:48:25;27.35;;;9.35;;
28629;SDS011;15817;42.130;24.762;2022-08-25T07:51:05;29.90;;;10.27;;
28629;SDS011;15817;42.130;24.762;2022-08-25T07:53:39;25.85;;;9.75;;
28629;SDS011;15817;42.130;24.762;2022-08-25T07:56:18;34.78;;;10.18;;
28629;SDS011;15817;42.130;24.762;2022-08-25T07:58:44;22.42;;;9.48;;
28629;SDS011;15817;42.130;24.762;2022-08-25T08:01:15;32.65;;;9.63;;
28629;SDS011;15817;42.130;24.762;2022-08-25T08:03:52;25.58;;;9.20;;
28629;SDS011;15817;42.130;24.762;2022-08-25T08:06:22;26.95;;;9.35;;
28629;SDS011;15817;42.130;24.762;2022-08-25T08:09:03;25.98;;;9.50;;
28629;SDS011;15817;42.130;24.762;2022-08-25T08:11:45;29.67;;;10.20;;
28629;SDS011;15817;42.130;24.762;2022-08-25T08:14:11;34.50;;;9.57;;
28629;SDS011;15817;42.130;24.762;2022-08-25T08:16:37;37.88;;;9.38;;
28629;SDS011;15817;42.130;24.762;2022-08-25T08:19:03;24.27;;;9.40;;
28629;SDS011;15817;42.130;24.762;2022-08-25T08:21:31;26.50;;;9.45;;
28629;SDS011;15817;42.130;24.762;2022-08-25T08:24:01;23.98;;;8.80;;
28629;SDS011;15817;42.130;24.762;2022-08-25T08:26:39;35.10;;;9.68;;
28629;SDS011;15817;42.130;24.762;2022-08-25T08:29:07;37.10;;;10.25;;
28629;SDS011;15817;42.130;24.762;2022-08-25T08:31:33;35.65;;;9.13;;
28629;SDS011;15817;42.130;24.762;2022-08-25T08:34:04;36.38;;;9.20;;
28629;SDS011;15817;42.130;24.762;2022-08-25T08:36:31;40.85;;;9.73;;
28629;SDS011;15817;42.130;24.762;2022-08-25T08:38:56;28.67;;;8.80;;
28629;SDS011;15817;42.130;24.762;2022-08-25T08:41:35;29.75;;;8.30;;
28629;SDS011;15817;42.130;24.762;2022-08-25T08:50:37;31.58;;;8.45;;
28629;SDS011;15817;42.130;24.762;2022-08-25T08:56:05;40.72;;;9.20;;
28629;SDS011;15817;42.130;24.762;2022-08-25T08:58:56;49.88;;;9.07;;
28629;SDS011;15817;42.130;24.762;2022-08-25T09:01:33;60.05;;;11.13;;
28629;SDS011;15817;42.130;24.762;2022-08-25T09:04:44;47.47;;;9.68;;
28629;SDS011;15817;42.130;24.762;2022-08-25T09:07:18;39.60;;;9.05;;
28629;SDS011;15817;42.130;24.762;2022-08-25T09:09:52;31.67;;;7.70;;
28629;SDS011;15817;42.130;24.762;2022-08-25T09:19:13;34.45;;;7.63;;
28629;SDS011;15817;42.130;24.762;2022-08-25T09:21:56;35.97;;;8.05;;
28629;SDS011;15817;42.130;24.762;2022-08-25T09:27:36;40.45;;;8.25;;
28629;SDS011;15817;42.130;24.762;2022-08-25T09:30:52;37.10;;;8.50;;
28629;SDS011;15817;42.130;24.762;2022-08-25T09:33:29;37.08;;;8.55;;
28629;SDS011;15817;42.130;24.762;2022-08-25T09:36:01;47.97;;;8.60;;
28629;SDS011;15817;42.130;24.762;2022-08-25T09:38:34;35.95;;;8.63;;
28629;SDS011;15817;42.130;24.762;2022-08-25T09:41:14;41.35;;;8.27;;
28629;SDS011;15817;42.130;24.762;2022-08-25T09:43:43;43.67;;;8.52;;
28629;SDS011;15817;42.130;24.762;2022-08-25T09:46:25;36.15;;;7.70;;
28629;SDS011;15817;42.130;24.762;2022-08-25T09:49:11;39.70;;;7.78;;
28629;SDS011;15817;42.130;24.762;2022-08-25T09:51:43;41.03;;;7.18;;
28629;SDS011;15817;42.130;24.762;2022-08-25T09:57:04;32.70;;;7.10;;
28629;SDS011;15817;42.130;24.762;2022-08-25T09:59:32;34.15;;;6.95;;
28629;SDS011;15817;42.130;24.762;2022-08-25T10:05:18;26.23;;;7.60;;
28629;SDS011;15817;42.130;24.762;2022-08-25T10:07:52;26.30;;;6.78;;
28629;SDS011;15817;42.130;24.762;2022-08-25T10:10:33;39.38;;;7.00;;
28629;SDS011;15817;42.130;24.762;2022-08-25T10:13:18;32.92;;;7.35;;
28629;SDS011;15817;42.130;24.762;2022-08-25T10:16:06;48.92;;;7.70;;
28629;SDS011;15817;42.130;24.762;2022-08-25T10:18:44;36.42;;;6.63;;
28629;SDS011;15817;42.130;24.762;2022-08-25T10:21:24;39.70;;;6.85;;
28629;SDS011;15817;42.130;24.762;2022-08-25T10:23:53;42.90;;;6.85;;
28629;SDS011;15817;42.130;24.762;2022-08-25T10:29:28;39.00;;;7.13;;
28629;SDS011;15817;42.130;24.762;2022-08-25T10:32:15;44.75;;;6.78;;
28629;SDS011;15817;42.130;24.762;2022-08-25T10:35:17;33.95;;;6.47;;
28629;SDS011;15817;42.130;24.762;2022-08-25T10:38:07;32.00;;;6.03;;
28629;SDS011;15817;42.130;24.762;2022-08-25T10:43:22;34.22;;;6.75;;
28629;SDS011;15817;42.130;24.762;2022-08-25T10:46:02;42.85;;;7.53;;
28629;SDS011;15817;42.130;24.762;2022-08-25T10:48:46;37.55;;;6.95;;
28629;SDS011;15817;42.130;24.762;2022-08-25T10:54:16;27.55;;;6.03;;
28629;SDS011;15817;42.130;24.762;2022-08-25T11:07:09;25.63;;;6.40;;
28629;SDS011;15817;42.130;24.762;2022-08-25T11:09:51;42.58;;;6.28;;
28629;SDS011;15817;42.130;24.762;2022-08-25T11:15:24;38.55;;;6.57;;
28629;SDS011;15817;42.130;24.762;2022-08-25T11:18:07;37.03;;;6.20;;
28629;SDS011;15817;42.130;24.762;2022-08-25T11:20:42;34.20;;;5.85;;
28629;SDS011;15817;42.130;24.762;2022-08-25T11:23:16;33.05;;;6.82;;
28629;SDS011;15817;42.130;24.762;2022-08-25T11:25:53;37.50;;;6.55;;
28629;SDS011;15817;42.130;24.762;2022-08-25T11:28:29;49.40;;;6.50;;
28629;SDS011;15817;42.130;24.762;2022-08-25T11:31:04;33.70;;;6.15;;
28629;SDS011;15817;42.130;24.762;2022-08-25T11:33:32;34.55;;;6.55;;
28629;SDS011;15817;42.130;24.762;2022-08-25T11:36:42;33.65;;;5.82;;
28629;SDS011;15817;42.130;24.762;2022-08-25T11:47:21;29.17;;;5.57;;
28629;SDS011;15817;42.130;24.762;2022-08-25T11:49:54;42.53;;;6.50;;
28629;SDS011;15817;42.130;24.762;2022-08-25T12:07:16;23.30;;;5.15;;
28629;SDS011;15817;42.130;24.762;2022-08-25T12:10:08;34.42;;;6.78;;
28629;SDS011;15817;42.130;24.762;2022-08-25T12:16:18;41.83;;;6.00;;
28629;SDS011;15817;42.130;24.762;2022-08-25T12:24:53;35.13;;;5.93;;
28629;SDS011;15817;42.130;24.762;2022-08-25T12:28:08;27.33;;;5.00;;
28629;SDS011;15817;42.130;24.762;2022-08-25T12:30:58;39.75;;;5.20;;
28629;SDS011;15817;42.130;24.762;2022-08-25T12:37:03;26.33;;;5.63;;
28629;SDS011;15817;42.130;24.762;2022-08-25T12:43:27;30.75;;;5.00;;
28629;SDS011;15817;42.130;24.762;2022-08-25T12:46:31;26.52;;;5.38;;
28629;SDS011;15817;42.130;24.762;2022-08-25T12:55:05;30.05;;;6.30;;
28629;SDS011;15817;42.130;24.762;2022-08-25T12:57:50;24.40;;;5.57;;
28629;SDS011;15817;42.130;24.762;2022-08-25T13:00:27;38.78;;;5.82;;
28629;SDS011;15817;42.130;24.762;2022-08-25T13:03:25;34.65;;;4.78;;
28629;SDS011;15817;42.130;24.762;2022-08-25T13:12:21;43.40;;;6.40;;
28629;SDS011;15817;42.130;24.762;2022-08-25T13:18:25;28.48;;;5.85;;
28629;SDS011;15817;42.130;24.762;2022-08-25T13:21:00;36.17;;;6.22;;
28629;SDS011;15817;42.130;24.762;2022-08-25T13:23:59;36.78;;;5.40;;
28629;SDS011;15817;42.130;24.762;2022-08-25T13:26:27;31.40;;;5.93;;
28629;SDS011;15817;42.130;24.762;2022-08-25T13:28:58;39.15;;;6.55;;
28629;SDS011;15817;42.130;24.762;2022-08-25T13:31:29;38.95;;;5.70;;
28629;SDS011;15817;42.130;24.762;2022-08-25T13:33:56;35.90;;;5.85;;
28629;SDS011;15817;42.130;24.762;2022-08-25T13:36:27;37.95;;;5.90;;
28629;SDS011;15817;42.130;24.762;2022-08-25T13:39:45;30.52;;;6.18;;
28629;SDS011;15817;42.130;24.762;2022-08-25T13:42:13;33.28;;;5.95;;
28629;SDS011;15817;42.130;24.762;2022-08-25T13:44:40;27.15;;;5.18;;
28629;SDS011;15817;42.130;24.762;2022-08-25T13:47:31;24.50;;;4.95;;
28629;SDS011;15817;42.130;24.762;2022-08-25T13:56:21;16.48;;;4.18;;
28629;SDS011;15817;42.130;24.762;2022-08-25T14:02:13;16.38;;;5.07;;
28629;SDS011;15817;42.130;24.762;2022-08-25T14:11:40;20.98;;;4.57;;
28629;SDS011;15817;42.130;24.762;2022-08-25T14:16:50;18.33;;;4.32;;
28629;SDS011;15817;42.130;24.762;2022-08-25T14:19:20;24.42;;;4.82;;
28629;SDS011;15817;42.130;24.762;2022-08-25T14:21:49;22.13;;;4.57;;
28629;SDS011;15817;42.130;24.762;2022-08-25T14:24:21;15.48;;;4.35;;
28629;SDS011;15817;42.130;24.762;2022-08-25T14:27:06;22.55;;;4.75;;
28629;SDS011;15817;42.130;24.762;2022-08-25T14:29:44;21.65;;;4.28;;
28629;SDS011;15817;42.130;24.762;2022-08-25T14:32:12;19.45;;;4.82;;
28629;SDS011;15817;42.130;24.762;2022-08-25T14:34:40;23.95;;;4.72;;
28629;SDS011;15817;42.130;24.762;2022-08-25T14:37:16;28.10;;;5.72;;
28629;SDS011;15817;42.130;24.762;2022-08-25T14:39:49;19.38;;;4.35;;
28629;SDS011;15817;42.130;24.762;2022-08-25T14:42:43;22.60;;;4.80;;
28629;SDS011;15817;42.130;24.762;2022-08-25T14:45:38;20.90;;;4.82;;
28629;SDS011;15817;42.130;24.762;2022-08-25T14:48:11;23.85;;;4.80;;
28629;SDS011;15817;42.130;24.762;2022-08-25T14:53:41;18.48;;;4.93;;
28629;SDS011;15817;42.130;24.762;2022-08-25T14:56:16;24.08;;;5.10;;
28629;SDS011;15817;42.130;24.762;2022-08-25T14:59:16;21.75;;;4.78;;
28629;SDS011;15817;42.130;24.762;2022-08-25T15:01:42;26.52;;;5.25;;
28629;SDS011;15817;42.130;24.762;2022-08-25T15:04:21;21.75;;;5.38;;
28629;SDS011;15817;42.130;24.762;2022-08-25T15:07:08;29.77;;;5.03;;
28629;SDS011;15817;42.130;24.762;2022-08-25T15:10:04;24.33;;;4.55;;
28629;SDS011;15817;42.130;24.762;2022-08-25T15:12:43;25.35;;;5.28;;
28629;SDS011;15817;42.130;24.762;2022-08-25T15:15:21;24.55;;;5.07;;
28629;SDS011;15817;42.130;24.762;2022-08-25T15:17:53;24.08;;;4.82;;
28629;SDS011;15817;42.130;24.762;2022-08-25T15:20:20;22.05;;;5.43;;
28629;SDS011;15817;42.130;24.762;2022-08-25T15:22:51;23.33;;;5.22;;
28629;SDS011;15817;42.130;24.762;2022-08-25T15:25:17;16.20;;;4.72;;
28629;SDS011;15817;42.130;24.762;2022-08-25T15:27:49;21.75;;;4.47;;
28629;SDS011;15817;42.130;24.762;2022-08-25T15:30:21;20.13;;;4.82;;
28629;SDS011;15817;42.130;24.762;2022-08-25T15:32:47;20.15;;;4.40;;
28629;SDS011;15817;42.130;24.762;2022-08-25T15:35:13;18.90;;;4.30;;
28629;SDS011;15817;42.130;24.762;2022-08-25T15:37:39;15.43;;;4.30;;
28629;SDS011;15817;42.130;24.762;2022-08-25T15:40:27;23.13;;;4.47;;
28629;SDS011;15817;42.130;24.762;2022-08-25T15:42:53;15.75;;;4.20;;
28629;SDS011;15817;42.130;24.762;2022-08-25T15:45:43;25.30;;;5.60;;
28629;SDS011;15817;42.130;24.762;2022-08-25T15:48:18;24.20;;;5.07;;
28629;SDS011;15817;42.130;24.762;2022-08-25T15:50:54;19.02;;;4.57;;
28629;SDS011;15817;42.130;24.762;2022-08-25T15:53:25;21.88;;;5.28;;
28629;SDS011;15817;42.130;24.762;2022-08-25T15:56:07;16.85;;;4.72;;
28629;SDS011;15817;42.130;24.762;2022-08-25T15:58:57;21.77;;;5.38;;
28629;SDS011;15817;42.130;24.762;2022-08-25T16:01:32;23.42;;;5.65;;
28629;SDS011;15817;42.130;24.762;2022-08-25T16:04:06;17.73;;;4.75;;
28629;SDS011;15817;42.130;24.762;2022-08-25T16:07:11;20.55;;;4.85;;
28629;SDS011;15817;42.130;24.762;2022-08-25T16:09:55;25.42;;;4.95;;
28629;SDS011;15817;42.130;24.762;2022-08-25T16:12:31;23.15;;;4.60;;
28629;SDS011;15817;42.130;24.762;2022-08-25T16:15:39;24.52;;;4.78;;
28629;SDS011;15817;42.130;24.762;2022-08-25T16:21:59;20.55;;;4.90;;
28629;SDS011;15817;42.130;24.762;2022-08-25T16:24:28;17.33;;;4.72;;
28629;SDS011;15817;42.130;24.762;2022-08-25T16:27:11;17.83;;;4.95;;
28629;SDS011;15817;42.130;24.762;2022-08-25T16:29:43;17.23;;;4.50;;
28629;SDS011;15817;42.130;24.762;2022-08-25T16:32:31;18.38;;;4.38;;
28629;SDS011;15817;42.130;24.762;2022-08-25T16:38:52;27.65;;;5.00;;
28629;SDS011;15817;42.130;24.762;2022-08-25T16:41:29;21.45;;;5.90;;
28629;SDS011;15817;42.130;24.762;2022-08-25T16:43:59;19.42;;;4.82;;
28629;SDS011;15817;42.130;24.762;2022-08-25T16:46:28;24.00;;;4.35;;
28629;SDS011;15817;42.130;24.762;2022-08-25T16:52:29;14.75;;;3.85;;
28629;SDS011;15817;42.130;24.762;2022-08-25T16:55:28;19.77;;;4.13;;
28629;SDS011;15817;42.130;24.762;2022-08-25T16:57:59;16.42;;;4.03;;
28629;SDS011;15817;42.130;24.762;2022-08-25T17:00:46;28.52;;;5.07;;
28629;SDS011;15817;42.130;24.762;2022-08-25T17:03:30;15.50;;;4.07;;
28629;SDS011;15817;42.130;24.762;2022-08-25T17:05:59;20.15;;;4.97;;
28629;SDS011;15817;42.130;24.762;2022-08-25T17:08:29;16.67;;;4.70;;
28629;SDS011;15817;42.130;24.762;2022-08-25T17:14:25;19.92;;;4.72;;
28629;SDS011;15817;42.130;24.762;2022-08-25T17:17:37;16.63;;;5.10;;
28629;SDS011;15817;42.130;24.762;2022-08-25T17:20:00;21.63;;;5.38;;
28629;SDS011;15817;42.130;24.762;2022-08-25T17:22:42;13.43;;;4.97;;
28629;SDS011;15817;42.130;24.762;2022-08-25T17:25:08;17.55;;;4.47;;
28629;SDS011;15817;42.130;24.762;2022-08-25T17:28:06;19.33;;;4.55;;
28629;SDS011;15817;42.130;24.762;2022-08-25T17:34:05;15.98;;;4.95;;
28629;SDS011;15817;42.130;24.762;2022-08-25T17:36:40;16.52;;;4.68;;
28629;SDS011;15817;42.130;24.762;2022-08-25T17:42:21;15.00;;;4.15;;
28629;SDS011;15817;42.130;24.762;2022-08-25T17:45:23;20.90;;;5.65;;
28629;SDS011;15817;42.130;24.762;2022-08-25T17:47:49;16.45;;;4.95;;
28629;SDS011;15817;42.130;24.762;2022-08-25T17:51:00;13.25;;;5.13;;
28629;SDS011;15817;42.130;24.762;2022-08-25T17:53:43;19.50;;;5.10;;
28629;SDS011;15817;42.130;24.762;2022-08-25T17:56:39;18.70;;;5.57;;
28629;SDS011;15817;42.130;24.762;2022-08-25T17:59:20;21.27;;;5.20;;
28629;SDS011;15817;42.130;24.762;2022-08-25T18:04:44;13.65;;;5.03;;
28629;SDS011;15817;42.130;24.762;2022-08-25T18:07:19;26.08;;;5.28;;
28629;SDS011;15817;42.130;24.762;2022-08-25T18:09:47;26.73;;;6.10;;
28629;SDS011;15817;42.130;24.762;2022-08-25T18:12:46;21.20;;;4.80;;
28629;SDS011;15817;42.130;24.762;2022-08-25T18:15:47;21.40;;;5.80;;
28629;SDS011;15817;42.130;24.762;2022-08-25T18:18:16;22.27;;;6.28;;
28629;SDS011;15817;42.130;24.762;2022-08-25T18:20:44;23.92;;;5.90;;
28629;SDS011;15817;42.130;24.762;2022-08-25T18:23:11;29.13;;;6.65;;
28629;SDS011;15817;42.130;24.762;2022-08-25T18:25:50;29.15;;;5.95;;
28629;SDS011;15817;42.130;24.762;2022-08-25T18:28:17;36.35;;;6.28;;
28629;SDS011;15817;42.130;24.762;2022-08-25T18:30:55;28.70;;;6.05;;
28629;SDS011;15817;42.130;24.762;2022-08-25T18:34:07;21.95;;;5.57;;